Time;durP1;ratioP1;P1;durP2;ratioP2;P2;SDS_P1;SDS_P2;PMS_P1;PMS_P2;Temp;Humidity;BMP_temperature;BMP_pressure;BME280_temperature;BME280_humidity;BME280_pressure;Samples;Min_cycle;Max_cycle;Signal;HPM_P1;HPM_P2
2021/10/02 00:02:02;;;;;;;20.67;11.52;;;13.80;99.90;;;;;;5005330;28;39007;-76
2021/10/02 00:37:32;;;;;;;13.70;8.20;;;13.80;99.90;;;;;;5002492;28;39629;-76
2021/10/02 00:45:28;;;;;;;9.70;6.18;;;13.70;99.90;;;;;;4998502;28;39431;-76
2021/10/02 00:47:56;;;;;;;14.05;6.20;;;13.70;99.90;;;;;;4998366;28;39134;-76
2021/10/02 00:50:22;;;;;;;14.27;6.15;;;13.70;99.90;;;;;;5017524;28;38354;-76
2021/10/02 00:52:48;;;;;;;11.65;4.93;;;13.60;99.90;;;;;;5005900;28;35988;-76
2021/10/02 00:55:14;;;;;;;10.75;4.03;;;13.60;99.90;;;;;;5005978;28;40191;-76
2021/10/02 00:57:41;;;;;;;6.35;3.33;;;13.60;99.90;;;;;;5005800;28;38580;-76
2021/10/02 01:00:09;;;;;;;8.80;3.97;;;13.50;99.90;;;;;;5001230;28;38569;-76
2021/10/02 01:03:03;;;;;;;10.10;3.20;;;13.50;99.90;;;;;;4995680;28;36218;-76
2021/10/02 01:06:08;;;;;;;7.43;4.32;;;13.50;99.90;;;;;;5004375;28;38805;-75
2021/10/02 01:08:50;;;;;;;6.68;3.60;;;13.50;99.90;;;;;;5004919;28;38847;-75
2021/10/02 01:11:45;;;;;;;10.48;5.25;;;13.40;99.90;;;;;;4996473;28;37878;-76
2021/10/02 01:14:37;;;;;;;9.48;4.05;;;13.40;99.90;;;;;;4994507;28;37262;-76
2021/10/02 01:17:14;;;;;;;9.23;3.95;;;13.30;99.90;;;;;;5003356;28;38762;-76
2021/10/02 01:20:04;;;;;;;7.90;4.28;;;13.30;99.90;;;;;;5001875;28;37784;-76
2021/10/02 01:23:04;;;;;;;11.25;5.18;;;13.20;99.90;;;;;;5001801;28;47787;-76
2021/10/02 01:25:57;;;;;;;11.30;4.38;;;13.20;99.90;;;;;;5003541;28;36930;-76
2021/10/02 01:28:25;;;;;;;12.88;4.80;;;13.10;99.90;;;;;;5018512;28;38696;-75
2021/10/02 01:31:02;;;;;;;9.63;4.70;;;13.10;99.90;;;;;;5006307;28;37828;-76
2021/10/02 01:49:33;;;;;;;11.05;5.53;;;12.70;99.90;;;;;;5004866;28;39093;-76
2021/10/02 01:52:00;;;;;;;11.52;4.80;;;12.70;99.90;;;;;;5004314;28;38675;-75
2021/10/02 01:54:29;;;;;;;10.90;5.72;;;12.60;99.90;;;;;;5004661;28;37687;-75
2021/10/02 01:56:57;;;;;;;10.40;5.30;;;12.50;99.90;;;;;;5008017;28;37096;-75
2021/10/02 01:59:26;;;;;;;14.23;4.75;;;12.50;99.90;;;;;;5005537;28;38973;-76
2021/10/02 02:01:54;;;;;;;11.40;5.07;;;12.40;99.90;;;;;;5002436;28;39554;-76
2021/10/02 02:04:20;;;;;;;11.75;5.25;;;12.40;99.90;;;;;;5002395;28;38075;-76
2021/10/02 02:06:47;;;;;;;11.60;4.50;;;12.30;99.90;;;;;;4999607;28;37049;-76
2021/10/02 02:09:16;;;;;;;17.48;7.00;;;12.20;99.90;;;;;;5004678;28;38090;-76
2021/10/02 02:11:44;;;;;;;14.40;7.00;;;12.20;99.90;;;;;;5004824;28;38626;-75
2021/10/02 02:14:13;;;;;;;14.55;6.80;;;12.10;99.90;;;;;;5005557;28;39223;-76
2021/10/02 02:16:43;;;;;;;10.98;5.38;;;12.10;99.90;;;;;;5003297;28;37557;-75
2021/10/02 02:19:10;;;;;;;8.98;5.07;;;12.00;99.90;;;;;;4998514;28;38869;-76
2021/10/02 02:21:36;;;;;;;8.85;5.40;;;12.00;99.90;;;;;;5005086;28;39630;-76
2021/10/02 02:24:02;;;;;;;8.90;5.50;;;11.90;99.90;;;;;;5010712;28;38274;-76
2021/10/02 02:26:29;;;;;;;14.45;7.85;;;11.80;99.90;;;;;;5007738;28;37603;-75
2021/10/02 02:28:57;;;;;;;9.98;5.13;;;11.80;99.90;;;;;;4999525;28;37734;-75
2021/10/02 02:31:23;;;;;;;9.23;5.75;;;11.70;99.90;;;;;;5003227;28;39449;-76
2021/10/02 02:33:49;;;;;;;10.15;5.40;;;11.70;99.90;;;;;;4999847;28;37395;-75
2021/10/02 02:36:16;;;;;;;6.55;5.82;;;11.60;99.90;;;;;;5002535;28;37621;-75
2021/10/02 02:38:42;;;;;;;10.40;6.45;;;11.60;99.90;;;;;;5004108;28;38695;-75
2021/10/02 02:41:09;;;;;;;12.55;7.93;;;11.60;99.90;;;;;;5006117;28;37593;-76
2021/10/02 02:43:35;;;;;;;10.77;7.03;;;11.60;99.90;;;;;;5004201;28;39465;-75
2021/10/02 02:46:11;;;;;;;17.60;9.55;;;11.60;99.90;;;;;;5006714;28;37093;-75
2021/10/02 02:48:51;;;;;;;14.55;7.55;;;11.70;99.90;;;;;;5000865;28;38985;-75
2021/10/02 02:51:24;;;;;;;20.50;9.27;;;11.70;99.90;;;;;;5004617;28;38678;-75
2021/10/02 02:54:08;;;;;;;20.23;9.75;;;11.90;99.90;;;;;;5001564;28;37202;-75
2021/10/02 02:56:39;;;;;;;19.75;10.68;;;11.90;99.90;;;;;;5006117;28;37256;-75
2021/10/02 02:59:12;;;;;;;22.25;11.25;;;11.90;99.90;;;;;;5000552;28;38394;-76
2021/10/02 03:01:40;;;;;;;17.27;10.65;;;11.90;99.90;;;;;;5014280;28;39899;-76
2021/10/02 03:04:12;;;;;;;20.35;8.80;;;11.80;99.90;;;;;;5005611;28;38832;-75
2021/10/02 03:06:44;;;;;;;17.85;9.07;;;11.80;99.90;;;;;;4993518;28;36201;-75
2021/10/02 03:09:11;;;;;;;21.27;10.82;;;11.90;99.90;;;;;;5003344;28;38772;-75
2021/10/02 03:11:38;;;;;;;23.08;11.85;;;11.90;99.90;;;;;;5002412;28;39552;-76
2021/10/02 03:14:05;;;;;;;34.20;16.38;;;12.00;99.90;;;;;;5003153;28;39533;-75
2021/10/02 03:16:33;;;;;;;32.25;15.77;;;12.00;99.90;;;;;;4999395;28;38469;-76
2021/10/02 03:19:03;;;;;;;30.30;15.93;;;12.00;99.90;;;;;;4989715;28;38773;-76
2021/10/02 03:21:29;;;;;;;25.30;14.20;;;12.00;99.90;;;;;;5003065;28;39026;-75
2021/10/02 03:23:56;;;;;;;26.95;13.27;;;12.00;99.90;;;;;;5004463;28;39356;-75
2021/10/02 03:26:23;;;;;;;19.77;13.23;;;12.00;99.90;;;;;;5006898;28;36942;-75
2021/10/02 03:28:50;;;;;;;27.20;14.48;;;12.00;99.90;;;;;;5005230;28;39398;-75
2021/10/02 03:31:18;;;;;;;37.65;17.95;;;12.10;99.90;;;;;;5000436;28;40014;-75
2021/10/02 03:33:45;;;;;;;25.17;15.88;;;12.10;99.90;;;;;;4998011;28;38654;-76
2021/10/02 03:36:11;;;;;;;56.55;24.00;;;12.10;99.90;;;;;;4997084;28;38616;-75
2021/10/02 03:38:38;;;;;;;43.22;20.52;;;12.10;99.90;;;;;;4994526;28;39470;-76
2021/10/02 03:41:04;;;;;;;27.40;16.35;;;12.00;99.90;;;;;;5008961;28;40023;-76
2021/10/02 03:43:33;;;;;;;27.35;16.60;;;12.10;99.90;;;;;;5001889;28;39194;-76
2021/10/02 03:46:00;;;;;;;41.00;20.80;;;12.00;99.90;;;;;;5003086;28;37541;-75
2021/10/02 03:48:27;;;;;;;36.00;18.70;;;12.00;99.90;;;;;;5002125;28;40369;-75
2021/10/02 03:50:53;;;;;;;45.75;20.58;;;12.00;99.90;;;;;;5004176;28;38514;-75
2021/10/02 03:53:19;;;;;;;26.33;16.55;;;12.00;99.90;;;;;;5001539;28;40206;-75
2021/10/02 03:55:45;;;;;;;33.80;18.83;;;12.00;99.90;;;;;;5007333;28;37112;-76
2021/10/02 03:58:12;;;;;;;28.73;18.23;;;12.10;99.90;;;;;;5016004;28;39080;-76
2021/10/02 04:00:38;;;;;;;33.25;19.35;;;12.00;99.90;;;;;;5004223;28;39088;-75
2021/10/02 04:03:04;;;;;;;42.38;20.33;;;12.00;99.90;;;;;;5017971;28;40349;-76
2021/10/02 04:05:30;;;;;;;57.85;24.42;;;12.10;99.90;;;;;;5006201;28;37263;-76
2021/10/02 04:07:56;;;;;;;45.50;22.02;;;12.00;99.90;;;;;;5004649;28;39401;-76
2021/10/02 04:10:22;;;;;;;65.13;25.63;;;12.00;99.90;;;;;;5004106;28;38892;-75
2021/10/02 04:12:49;;;;;;;49.42;23.52;;;12.00;99.90;;;;;;5004272;28;38670;-75
2021/10/02 04:15:15;;;;;;;34.08;19.55;;;12.00;99.90;;;;;;5001178;28;36286;-75
2021/10/02 04:17:41;;;;;;;62.95;26.98;;;12.10;99.90;;;;;;5002120;28;38854;-76
2021/10/02 04:20:08;;;;;;;34.65;21.55;;;12.10;99.90;;;;;;5004723;28;39865;-76
2021/10/02 04:22:35;;;;;;;34.22;19.65;;;12.10;99.90;;;;;;5005263;28;39180;-75
2021/10/02 04:25:01;;;;;;;38.50;18.90;;;12.10;99.90;;;;;;5004400;28;38325;-75
2021/10/02 04:27:27;;;;;;;34.20;19.67;;;12.00;99.90;;;;;;5008719;28;38572;-75
2021/10/02 04:29:53;;;;;;;37.92;20.80;;;12.10;99.90;;;;;;5005222;28;40076;-75
2021/10/02 04:32:19;;;;;;;30.27;18.75;;;12.00;99.90;;;;;;5018174;28;38986;-76
2021/10/02 04:34:46;;;;;;;36.60;20.35;;;12.00;99.90;;;;;;5006568;28;37700;-76
2021/10/02 04:37:12;;;;;;;33.75;17.80;;;12.00;99.90;;;;;;5003714;28;38852;-76
2021/10/02 04:39:38;;;;;;;24.42;16.17;;;12.00;99.90;;;;;;5005480;28;39201;-75
2021/10/02 04:42:05;;;;;;;44.10;19.02;;;12.10;99.90;;;;;;5003738;28;38970;-75
2021/10/02 04:44:32;;;;;;;40.95;19.15;;;12.00;99.90;;;;;;5004656;28;38924;-76
2021/10/02 04:46:58;;;;;;;24.10;14.65;;;12.00;99.90;;;;;;5002793;28;38656;-76
2021/10/02 04:49:24;;;;;;;22.95;14.45;;;12.00;99.90;;;;;;5000487;28;38821;-75
2021/10/02 04:51:51;;;;;;;26.52;13.93;;;11.90;99.90;;;;;;5006648;28;40147;-75
2021/10/02 04:54:17;;;;;;;23.17;12.73;;;11.90;99.90;;;;;;5005773;28;37849;-76
2021/10/02 04:56:44;;;;;;;23.90;14.52;;;11.90;99.90;;;;;;5006565;28;38563;-76
2021/10/02 04:59:10;;;;;;;23.65;13.90;;;11.90;99.90;;;;;;5003753;28;40196;-75
2021/10/02 05:01:37;;;;;;;39.33;18.75;;;11.90;99.90;;;;;;5004521;28;38741;-76
2021/10/02 05:04:05;;;;;;;26.27;13.07;;;11.80;99.90;;;;;;5000946;28;38151;-75
2021/10/02 05:06:31;;;;;;;24.38;13.15;;;11.90;99.90;;;;;;4999858;28;38475;-75
2021/10/02 05:08:57;;;;;;;28.63;15.98;;;12.00;99.90;;;;;;5007288;28;39775;-76
2021/10/02 05:11:23;;;;;;;29.38;15.82;;;12.00;99.90;;;;;;5003409;28;38909;-76
2021/10/02 05:13:50;;;;;;;39.88;20.77;;;12.10;99.90;;;;;;5003972;28;37386;-76
2021/10/02 05:16:16;;;;;;;27.77;17.00;;;12.00;99.90;;;;;;5002529;28;40142;-76
2021/10/02 05:18:42;;;;;;;40.17;22.65;;;12.00;99.90;;;;;;5005902;28;38712;-76
2021/10/02 05:21:08;;;;;;;41.67;23.23;;;12.10;99.90;;;;;;5005986;28;39138;-76
2021/10/02 05:23:34;;;;;;;38.50;21.98;;;12.10;99.90;;;;;;5005695;28;37778;-77
2021/10/02 05:26:00;;;;;;;36.97;20.77;;;12.10;99.90;;;;;;4996868;28;39977;-77
2021/10/02 05:28:27;;;;;;;34.50;20.00;;;12.00;99.90;;;;;;5003385;28;39733;-78
2021/10/02 05:30:53;;;;;;;37.53;22.80;;;12.00;99.90;;;;;;5005512;28;37756;-78
2021/10/02 05:33:19;;;;;;;44.53;21.17;;;12.00;99.90;;;;;;5001384;28;38489;-78
2021/10/02 05:35:45;;;;;;;43.03;22.88;;;12.10;99.90;;;;;;4998795;28;40226;-78
2021/10/02 05:38:12;;;;;;;40.50;21.90;;;12.00;99.90;;;;;;4999468;28;40221;-78
2021/10/02 05:40:38;;;;;;;39.60;19.60;;;12.00;99.90;;;;;;5010815;28;39152;-78
2021/10/02 05:43:04;;;;;;;41.55;21.15;;;12.10;99.90;;;;;;4995327;28;38009;-78
2021/10/02 05:45:30;;;;;;;38.20;21.60;;;12.10;99.90;;;;;;5014940;28;39624;-77
2021/10/02 05:47:57;;;;;;;41.50;22.73;;;12.00;99.90;;;;;;4997502;28;39809;-77
2021/10/02 05:50:24;;;;;;;45.45;21.17;;;12.10;99.90;;;;;;5000261;28;39145;-77
2021/10/02 05:52:50;;;;;;;37.00;20.85;;;12.00;99.90;;;;;;5001830;28;38507;-77
2021/10/02 05:55:16;;;;;;;33.13;18.08;;;12.00;99.90;;;;;;4999060;28;40191;-78
2021/10/02 05:57:42;;;;;;;38.97;22.15;;;11.90;99.90;;;;;;5006132;28;37360;-77
2021/10/02 06:00:09;;;;;;;35.08;18.33;;;11.90;99.90;;;;;;5001771;28;38576;-77
2021/10/02 06:02:35;;;;;;;31.67;17.92;;;11.90;99.90;;;;;;5003123;28;38351;-77
2021/10/02 06:05:02;;;;;;;35.72;17.27;;;11.90;99.90;;;;;;5003278;28;38805;-77
2021/10/02 06:07:28;;;;;;;39.55;19.48;;;11.90;99.90;;;;;;5003345;28;37877;-77
2021/10/02 06:09:54;;;;;;;41.03;19.83;;;11.90;99.90;;;;;;5002862;28;38709;-77
2021/10/02 06:12:20;;;;;;;38.38;18.52;;;11.90;99.90;;;;;;5001436;28;38254;-77
2021/10/02 06:14:46;;;;;;;32.72;17.15;;;11.80;99.90;;;;;;5003262;28;39541;-77
2021/10/02 06:17:12;;;;;;;30.90;17.60;;;11.90;99.90;;;;;;4997620;28;38082;-77
2021/10/02 06:19:38;;;;;;;38.78;17.23;;;11.80;99.90;;;;;;5003153;28;38527;-77
2021/10/02 06:22:04;;;;;;;39.15;20.02;;;11.90;99.90;;;;;;5000772;28;38154;-77
2021/10/02 06:24:30;;;;;;;48.97;21.80;;;11.90;99.90;;;;;;5009614;28;39744;-77
2021/10/02 06:26:57;;;;;;;34.40;18.27;;;11.90;99.90;;;;;;5010398;28;38813;-78
2021/10/02 06:29:23;;;;;;;32.55;18.88;;;11.90;99.90;;;;;;5002214;28;38349;-78
2021/10/02 06:31:49;;;;;;;35.83;18.15;;;11.90;99.90;;;;;;5017022;28;37744;-77
2021/10/02 06:34:15;;;;;;;32.50;17.38;;;12.00;99.90;;;;;;5002950;28;39432;-77
2021/10/02 06:36:42;;;;;;;46.83;20.48;;;12.00;99.90;;;;;;4998682;28;40439;-77
2021/10/02 06:39:10;;;;;;;32.70;17.58;;;12.00;99.90;;;;;;4998291;28;39324;-78
2021/10/02 06:41:36;;;;;;;36.28;18.63;;;12.10;99.90;;;;;;5000837;28;39316;-77
2021/10/02 06:44:03;;;;;;;37.17;18.58;;;12.10;99.90;;;;;;4998749;28;39761;-77
2021/10/02 06:46:30;;;;;;;38.35;17.42;;;12.10;99.90;;;;;;4999443;28;40512;-77
2021/10/02 06:48:56;;;;;;;32.95;17.23;;;12.20;99.90;;;;;;5002276;28;38547;-77
2021/10/02 06:51:23;;;;;;;37.03;18.70;;;12.20;99.90;;;;;;5003593;28;39185;-78
2021/10/02 06:53:49;;;;;;;37.72;18.48;;;12.20;99.90;;;;;;5002130;28;38421;-77
2021/10/02 06:56:15;;;;;;;33.33;16.60;;;12.30;99.90;;;;;;5002850;28;38997;-77
2021/10/02 06:58:41;;;;;;;34.88;15.75;;;12.30;99.90;;;;;;5001360;28;39519;-77
2021/10/02 07:01:07;;;;;;;33.05;17.17;;;12.30;99.90;;;;;;5001843;28;37561;-77
2021/10/02 07:03:33;;;;;;;29.15;16.27;;;12.30;99.90;;;;;;4998657;28;39411;-77
2021/10/02 07:05:59;;;;;;;31.17;16.00;;;12.30;99.90;;;;;;5001286;28;39745;-77
2021/10/02 07:08:26;;;;;;;30.48;16.33;;;12.30;99.90;;;;;;5000920;28;38948;-77
2021/10/02 07:10:52;;;;;;;32.15;16.20;;;12.30;99.90;;;;;;4999446;28;37984;-78
2021/10/02 07:13:18;;;;;;;37.05;16.10;;;12.40;99.90;;;;;;5001511;28;40166;-77
2021/10/02 07:15:44;;;;;;;26.52;13.35;;;12.40;99.90;;;;;;5003003;28;38956;-77
2021/10/02 07:18:10;;;;;;;27.85;14.15;;;12.40;99.90;;;;;;5001445;28;37928;-77
2021/10/02 07:20:37;;;;;;;31.80;12.88;;;12.40;99.90;;;;;;5001071;28;38270;-77
2021/10/02 07:23:03;;;;;;;29.63;13.88;;;12.50;99.90;;;;;;5001980;28;39840;-77
2021/10/02 07:25:29;;;;;;;27.38;13.77;;;12.50;99.90;;;;;;4996866;28;39886;-78
2021/10/02 07:27:55;;;;;;;30.58;13.10;;;12.50;99.90;;;;;;5010881;28;36954;-77
2021/10/02 07:30:22;;;;;;;25.88;11.88;;;12.50;99.90;;;;;;5003114;28;39027;-77
2021/10/02 07:32:48;;;;;;;20.77;11.73;;;12.50;99.90;;;;;;5010431;28;39181;-77
2021/10/02 07:35:15;;;;;;;21.20;11.75;;;12.60;99.90;;;;;;5007377;28;38886;-77
2021/10/02 07:37:42;;;;;;;20.60;12.50;;;12.60;99.90;;;;;;5000914;28;40024;-77
2021/10/02 07:40:10;;;;;;;23.10;9.65;;;12.60;99.90;;;;;;5006486;28;37504;-77
2021/10/02 07:42:38;;;;;;;26.02;10.02;;;12.70;99.90;;;;;;5004300;28;38712;-78
2021/10/02 07:45:11;;;;;;;20.90;10.68;;;12.60;99.90;;;;;;5004602;28;38909;-77
2021/10/02 07:47:42;;;;;;;23.42;11.13;;;12.70;99.90;;;;;;4997563;28;48744;-78
2021/10/02 07:50:11;;;;;;;21.95;9.90;;;12.80;99.90;;;;;;4999843;28;38680;-78
2021/10/02 07:52:39;;;;;;;28.25;9.63;;;12.80;99.90;;;;;;5000753;28;39291;-78
2021/10/02 07:55:08;;;;;;;22.98;10.25;;;12.80;99.90;;;;;;5018219;28;39569;-78
2021/10/02 07:57:36;;;;;;;22.85;10.52;;;12.90;99.90;;;;;;5006755;28;39033;-77
2021/10/02 08:00:05;;;;;;;17.48;9.10;;;12.90;99.90;;;;;;5003559;28;38416;-77
2021/10/02 08:02:32;;;;;;;21.35;9.82;;;13.00;99.90;;;;;;5005765;28;39825;-78
2021/10/02 08:05:00;;;;;;;20.90;9.38;;;12.90;99.90;;;;;;5002632;28;38834;-78
2021/10/02 08:07:28;;;;;;;18.95;9.80;;;12.90;99.90;;;;;;4997552;28;38144;-78
2021/10/02 08:09:55;;;;;;;30.02;12.35;;;13.00;99.90;;;;;;5002058;28;37565;-78
2021/10/02 08:12:21;;;;;;;27.88;12.68;;;13.00;99.90;;;;;;4996007;28;39952;-78
2021/10/02 08:14:47;;;;;;;25.25;13.55;;;13.00;99.90;;;;;;4997608;28;39946;-78
2021/10/02 08:17:15;;;;;;;25.70;13.23;;;13.00;99.90;;;;;;4995758;28;39276;-78
2021/10/02 08:19:41;;;;;;;22.58;11.63;;;13.00;99.90;;;;;;4996093;28;36167;-78
2021/10/02 08:22:09;;;;;;;22.48;9.55;;;13.10;99.90;;;;;;5001289;28;39218;-78
2021/10/02 08:24:36;;;;;;;18.88;8.55;;;13.10;99.90;;;;;;5002222;28;39957;-77
2021/10/02 08:27:03;;;;;;;19.23;8.05;;;13.20;99.90;;;;;;5004654;28;38558;-77
2021/10/02 08:29:31;;;;;;;16.52;7.35;;;13.20;99.90;;;;;;4999340;28;38665;-77
2021/10/02 08:31:57;;;;;;;10.90;5.10;;;13.20;99.90;;;;;;4998563;28;39304;-78
2021/10/02 08:34:24;;;;;;;14.23;6.40;;;13.30;99.90;;;;;;5000382;28;39627;-78
2021/10/02 08:36:50;;;;;;;17.45;6.30;;;13.40;99.90;;;;;;5017067;28;37603;-78
2021/10/02 08:39:17;;;;;;;11.63;6.03;;;13.50;99.90;;;;;;4997682;28;37683;-79
2021/10/02 08:41:44;;;;;;;12.73;7.78;;;13.60;99.90;;;;;;4999507;28;39006;-78
2021/10/02 08:44:14;;;;;;;18.13;8.70;;;13.80;99.90;;;;;;5003796;28;39864;-77
2021/10/02 08:46:40;;;;;;;22.55;11.23;;;13.90;99.90;;;;;;5002623;28;40222;-78
2021/10/02 08:49:24;;;;;;;20.52;13.63;;;13.90;99.90;;;;;;4993689;28;38228;-78
2021/10/02 08:51:51;;;;;;;26.52;15.23;;;13.80;99.90;;;;;;4998575;28;39685;-79
2021/10/02 08:55:12;;;;;;;26.23;15.70;;;13.80;99.90;;;;;;5134876;27;20837;-77
2021/10/02 08:57:39;;;;;;;21.75;13.85;;;13.80;99.90;;;;;;5132009;27;39215;-77
2021/10/02 09:00:12;;;;;;;25.63;17.17;;;14.00;99.90;;;;;;5143057;27;37607;-77
2021/10/02 09:02:39;;;;;;;29.92;20.65;;;14.20;99.90;;;;;;5132082;27;47612;-77
2021/10/02 09:05:08;;;;;;;39.03;24.45;;;14.40;99.90;;;;;;5127967;27;37328;-77
2021/10/02 09:07:34;;;;;;;38.45;23.20;;;14.50;99.90;;;;;;5128325;27;38675;-77
2021/10/02 09:10:02;;;;;;;29.55;22.65;;;14.50;99.90;;;;;;5133952;27;37335;-78
2021/10/02 09:12:29;;;;;;;31.58;23.67;;;14.80;99.90;;;;;;5128744;27;47120;-77
2021/10/02 09:14:56;;;;;;;32.90;23.23;;;14.70;99.90;;;;;;5130385;27;38268;-76
2021/10/02 09:17:24;;;;;;;33.40;22.73;;;14.90;99.90;;;;;;5128750;27;37624;-78
2021/10/02 09:19:50;;;;;;;31.17;21.63;;;14.80;99.90;;;;;;5130462;27;37968;-77
2021/10/02 09:22:27;;;;;;;33.22;21.23;;;14.80;99.90;;;;;;5133560;27;39208;-77
2021/10/02 09:24:58;;;;;;;28.48;20.52;;;14.70;99.90;;;;;;5137128;27;38385;-76
2021/10/02 09:27:26;;;;;;;28.50;20.80;;;14.80;99.90;;;;;;5131525;27;38262;-77
2021/10/02 09:29:56;;;;;;;32.30;21.30;;;14.70;99.90;;;;;;5132551;27;38331;-77
2021/10/02 09:32:30;;;;;;;28.50;20.13;;;14.60;99.90;;;;;;5135657;27;37788;-76
2021/10/02 09:35:01;;;;;;;24.13;19.98;;;14.60;99.90;;;;;;5139549;27;39120;-77
2021/10/02 09:37:36;;;;;;;27.13;18.65;;;14.60;99.90;;;;;;5124332;27;47082;-76
2021/10/02 09:40:11;;;;;;;31.02;18.75;;;14.70;99.90;;;;;;5134324;27;37559;-76
2021/10/02 09:42:43;;;;;;;25.35;17.75;;;14.80;99.90;;;;;;5124966;27;47220;-79
2021/10/02 09:45:14;;;;;;;25.95;19.15;;;14.70;99.90;;;;;;5138189;27;38181;-79
2021/10/02 09:47:42;;;;;;;27.25;20.15;;;14.80;99.90;;;;;;5132145;27;38806;-79
2021/10/02 09:50:17;;;;;;;27.13;18.08;;;14.90;99.90;;;;;;5129939;27;37446;-78
2021/10/02 09:52:50;;;;;;;26.90;18.23;;;15.00;99.90;;;;;;5123577;27;37713;-78
2021/10/02 09:55:26;;;;;;;26.95;16.73;;;15.10;99.90;;;;;;5132109;27;39048;-78
2021/10/02 09:57:59;;;;;;;26.98;17.20;;;15.10;99.90;;;;;;5134197;27;37356;-78
2021/10/02 10:00:38;;;;;;;23.80;17.48;;;15.10;99.90;;;;;;5131624;27;37867;-79
2021/10/02 10:03:09;;;;;;;23.83;17.25;;;15.20;99.90;;;;;;5137106;27;38846;-77
2021/10/02 10:05:38;;;;;;;21.77;14.57;;;15.30;99.90;;;;;;5130038;27;38273;-78
2021/10/02 10:08:06;;;;;;;20.45;14.95;;;15.30;99.90;;;;;;5126894;27;37670;-78
2021/10/02 10:10:36;;;;;;;22.35;15.43;;;15.30;99.90;;;;;;5109906;27;37233;-79
2021/10/02 10:13:24;;;;;;;19.58;13.95;;;15.30;99.90;;;;;;5116547;27;38845;-78
2021/10/02 10:15:54;;;;;;;22.77;14.20;;;15.20;99.90;;;;;;5114062;27;40102;-79
2021/10/02 10:18:41;;;;;;;22.42;14.63;;;15.20;99.90;;;;;;5129806;27;37834;-79
2021/10/02 10:21:10;;;;;;;22.38;14.25;;;15.30;99.90;;;;;;5127144;27;36222;-79
2021/10/02 10:23:43;;;;;;;19.10;13.13;;;15.40;99.90;;;;;;5120560;27;38656;-78
2021/10/02 10:26:14;;;;;;;19.48;12.32;;;15.50;99.90;;;;;;5115313;27;39279;-80
2021/10/02 10:28:49;;;;;;;19.63;11.98;;;15.40;99.90;;;;;;5115037;27;37673;-79
2021/10/02 10:31:22;;;;;;;17.45;11.43;;;15.50;99.90;;;;;;5115574;27;37121;-79
2021/10/02 10:33:52;;;;;;;17.02;10.57;;;15.40;99.90;;;;;;5116554;27;38847;-78
2021/10/02 10:36:20;;;;;;;17.95;11.43;;;15.40;99.90;;;;;;5117553;27;38460;-80
2021/10/02 10:38:49;;;;;;;16.23;10.75;;;15.30;99.90;;;;;;5118103;27;39631;-79
2021/10/02 10:41:17;;;;;;;14.35;9.20;;;15.30;99.90;;;;;;5123442;27;37549;-79
2021/10/02 10:43:43;;;;;;;17.85;8.70;;;15.20;99.90;;;;;;5124664;27;40385;-80
2021/10/02 10:46:13;;;;;;;18.15;8.77;;;15.20;99.90;;;;;;5119653;27;39469;-79
2021/10/02 10:48:41;;;;;;;17.35;8.50;;;15.30;99.90;;;;;;5115699;27;38652;-78
2021/10/02 10:51:09;;;;;;;14.13;7.95;;;15.30;99.90;;;;;;5116931;27;38522;-80
2021/10/02 10:53:41;;;;;;;10.18;6.82;;;15.40;99.90;;;;;;5114273;27;38818;-79
2021/10/02 10:56:10;;;;;;;15.60;6.03;;;15.50;99.90;;;;;;5116884;27;40347;-80
2021/10/02 10:58:37;;;;;;;14.95;5.63;;;15.70;99.90;;;;;;5114759;27;38003;-79
2021/10/02 11:01:06;;;;;;;14.05;5.53;;;15.80;99.90;;;;;;5115050;27;36836;-78
2021/10/02 11:03:47;;;;;;;17.88;6.72;;;15.80;99.90;;;;;;5120286;27;39031;-79
2021/10/02 11:06:17;;;;;;;13.25;5.40;;;16.00;99.90;;;;;;5110461;27;38996;-79
2021/10/02 11:08:59;;;;;;;12.35;5.93;;;15.90;99.90;;;;;;5134519;27;38204;-79
2021/10/02 11:11:43;;;;;;;10.23;5.43;;;15.80;99.90;;;;;;5112265;27;36347;-79
2021/10/02 11:14:14;;;;;;;12.70;4.75;;;15.90;99.90;;;;;;5116320;27;40086;-79
2021/10/02 11:16:43;;;;;;;13.10;5.03;;;16.10;99.90;;;;;;5115014;27;38785;-80
2021/10/02 11:19:28;;;;;;;11.23;3.88;;;16.30;99.90;;;;;;5110368;27;37112;-80
2021/10/02 11:22:47;;;;;;;13.35;4.28;;;16.50;99.90;;;;;;5122833;27;38023;-80
2021/10/02 11:25:22;;;;;;;8.60;3.53;;;16.70;99.90;;;;;;5100135;27;48702;-79
2021/10/02 11:27:49;;;;;;;14.10;3.90;;;16.90;99.90;;;;;;5115269;27;38296;-80
2021/10/02 11:30:18;;;;;;;10.07;4.05;;;16.70;99.90;;;;;;5124231;27;37734;-80
2021/10/02 11:32:46;;;;;;;10.98;4.63;;;16.60;99.90;;;;;;5124813;27;37315;-81
2021/10/02 11:35:12;;;;;;;9.27;4.03;;;16.50;99.90;;;;;;5121043;27;38963;-81
2021/10/02 11:37:51;;;;;;;10.00;4.15;;;16.40;99.90;;;;;;5121422;27;38423;-80
2021/10/02 11:40:32;;;;;;;11.10;4.82;;;16.50;99.90;;;;;;5115789;27;37549;-80
2021/10/02 11:43:21;;;;;;;9.88;4.45;;;16.40;99.90;;;;;;5111907;27;37269;-80
2021/10/02 11:45:47;;;;;;;12.00;5.97;;;16.40;99.90;;;;;;5111508;27;48621;-79
2021/10/02 11:48:16;;;;;;;12.25;5.18;;;16.40;99.90;;;;;;5115662;27;37382;-80
2021/10/02 11:51:03;;;;;;;12.85;5.13;;;16.20;99.90;;;;;;5115843;27;38273;-80
2021/10/02 11:53:41;;;;;;;11.05;4.30;;;16.20;99.90;;;;;;5100913;27;46631;-80
2021/10/02 11:56:19;;;;;;;10.82;3.90;;;16.20;99.90;;;;;;5113535;27;39384;-80
2021/10/02 11:58:48;;;;;;;7.90;3.50;;;16.20;99.90;;;;;;5126154;27;38166;-80
2021/10/02 12:01:39;;;;;;;10.98;3.72;;;16.20;99.90;;;;;;5114136;27;37689;-80
2021/10/02 12:04:07;;;;;;;11.48;4.07;;;16.20;99.90;;;;;;5116203;27;38096;-81
2021/10/02 12:06:37;;;;;;;9.13;3.58;;;16.20;99.90;;;;;;5121917;27;39892;-80
2021/10/02 12:09:05;;;;;;;8.18;4.03;;;16.20;99.90;;;;;;5118157;27;40067;-79
2021/10/02 12:11:39;;;;;;;11.98;4.35;;;16.10;99.90;;;;;;5122250;27;36176;-79
2021/10/02 12:14:05;;;;;;;11.00;4.97;;;16.00;99.90;;;;;;5121968;27;38180;-79
2021/10/02 12:16:33;;;;;;;10.30;4.90;;;15.90;99.90;;;;;;5120298;27;39788;-80
2021/10/02 12:19:11;;;;;;;10.70;4.68;;;15.80;99.90;;;;;;5117624;27;38359;-80
2021/10/02 12:21:58;;;;;;;11.55;5.32;;;15.70;99.90;;;;;;5119609;27;47574;-78
2021/10/02 12:24:44;;;;;;;15.18;5.65;;;15.70;99.90;;;;;;5119744;27;37284;-80
2021/10/02 12:27:15;;;;;;;10.20;5.45;;;15.60;99.90;;;;;;5113935;27;38151;-81
2021/10/02 12:29:49;;;;;;;14.60;5.63;;;15.60;99.90;;;;;;5141140;27;38951;-81
2021/10/02 12:32:18;;;;;;;13.13;5.57;;;15.50;99.90;;;;;;5121656;27;38090;-82
2021/10/02 12:34:51;;;;;;;14.65;5.78;;;15.40;99.90;;;;;;5115111;27;38117;-78
2021/10/02 12:37:25;;;;;;;16.67;6.95;;;15.30;99.90;;;;;;5116112;27;39805;-82
2021/10/02 12:40:04;;;;;;;14.45;6.05;;;15.20;99.90;;;;;;5120500;27;38077;-81
2021/10/02 12:42:31;;;;;;;15.63;7.15;;;15.20;99.90;;;;;;5121871;27;48528;-81
2021/10/02 12:44:58;;;;;;;13.18;7.13;;;15.20;99.90;;;;;;5118749;27;36942;-81
2021/10/02 12:47:27;;;;;;;16.60;6.18;;;15.10;99.90;;;;;;5120624;27;39088;-80
2021/10/02 12:49:57;;;;;;;10.00;5.53;;;15.10;99.90;;;;;;5115432;27;39205;-80
2021/10/02 12:52:23;;;;;;;13.10;6.88;;;15.10;99.90;;;;;;5115222;27;38013;-80
2021/10/02 12:54:56;;;;;;;12.20;5.47;;;15.10;99.90;;;;;;5127042;27;37267;-81
2021/10/02 12:57:32;;;;;;;9.98;5.63;;;15.10;99.90;;;;;;5127025;27;38784;-81
2021/10/02 13:00:05;;;;;;;11.73;8.00;;;15.10;99.90;;;;;;5117121;27;39945;-80
2021/10/02 13:02:32;;;;;;;14.57;6.82;;;15.20;99.90;;;;;;5118571;27;47069;-80
2021/10/02 13:05:00;;;;;;;13.90;6.65;;;15.20;99.90;;;;;;5118236;27;37878;-80
2021/10/02 13:07:32;;;;;;;13.20;5.50;;;15.20;99.90;;;;;;5122843;27;38844;-81
2021/10/02 13:10:06;;;;;;;10.05;6.18;;;15.30;99.90;;;;;;5120307;27;38425;-79
2021/10/02 13:12:43;;;;;;;11.15;5.00;;;15.30;99.90;;;;;;5114158;27;47270;-81
2021/10/02 13:15:33;;;;;;;13.52;5.38;;;15.30;99.90;;;;;;5119862;27;39342;-81
2021/10/02 13:18:07;;;;;;;10.35;4.90;;;15.30;99.90;;;;;;5122478;27;37616;-80
2021/10/02 13:20:40;;;;;;;12.50;4.80;;;15.30;99.90;;;;;;5116699;27;47387;-81
2021/10/02 13:23:15;;;;;;;15.23;5.80;;;15.20;99.90;;;;;;5114340;27;38159;-81
2021/10/02 13:25:50;;;;;;;13.75;6.10;;;15.20;99.90;;;;;;5117344;27;37650;-80
2021/10/02 13:28:25;;;;;;;13.55;6.53;;;15.20;99.90;;;;;;5112777;27;39529;-81
2021/10/02 13:30:52;;;;;;;14.88;7.05;;;15.20;99.90;;;;;;5115142;27;38499;-80
2021/10/02 13:33:19;;;;;;;17.80;9.25;;;15.10;99.90;;;;;;5118067;27;38055;-82
2021/10/02 13:35:57;;;;;;;20.33;9.85;;;15.10;99.90;;;;;;5116108;27;35971;-81
2021/10/02 13:38:34;;;;;;;34.55;15.68;;;15.10;99.90;;;;;;5109610;27;37994;-80
2021/10/02 13:41:01;;;;;;;16.73;8.00;;;15.00;99.90;;;;;;5119094;27;37361;-82
2021/10/02 13:43:28;;;;;;;9.73;5.30;;;15.00;99.90;;;;;;5121397;27;47452;-80